메인 페이지
METAR-TAF:

METAR-TAF

공항 :

우아리 부메디엔 공항

알제, 알제리

위도: 36-43N, 경도: 003-15E, 고도: 25m

현재 날씨관측

예보는 32분 전, 11:30시(UTC)에 발표되었습니다.
동북동13kt
온도 27°C
습도 62%
기압 1018 hPa
시정 10km 이상
고도 2300ft 상공 구름 조금

METAR: DAAG 201130Z 07013KT 9999 FEW023 27/19 Q1018

시각: 13:02 (12:02 UTC)

예보

예보는 1 시간 2분 전, 11:00시(UTC)에 발표되었습니다.
예보 대상 시간: 20일 12시부터 21일 12시까지 (UTC)
10kt
시정 10km 이상
1500m 미만 상공 구름 및 적란운 없음
전환 중
20일 18시부터 20일 21시까지 (UTC)
여러 방향의 바람 2kt
전환 중
21일 09시부터 21일 12시까지 (UTC)
북동12kt

TAF: DAAG 201100Z 2012/2112 08010KT CAVOK BECMG 2018/2021 VRB02KT BECMG 2109/2112 04012KT

4,000개 이상의 공항 관측 자료 및 예보 (METAR 및 TAF 보고).

지도상에서 검색 가능한 기상관측소가 노란 점과 빨간 점으로 표시되어 있습니다.

기상관측소 명을 보려면 표시 위로 마우스를 이동하세요.

날씨 관측과 예보를 보려면 클릭하세요.

지도 변경 : 확대하려면 엑스 표시가 있는 녹색 버튼, 축소하려면 빼기 표시가 있는 녹색 버튼, 다음 페이지의 지도를 보려면 녹색 화살표를 클릭하세요.


METAR-TAF: